Time;durP1;ratioP1;P1;durP2;ratioP2;P2;SDS_P1;SDS_P2;PMS_P1;PMS_P2;Temp;Humidity;BMP_temperature;BMP_pressure;BME280_temperature;BME280_humidity;BME280_pressure;Samples;Min_cycle;Max_cycle;Signal;HPM_P1;HPM_P2
2021/10/02 00:45:57;;;;;;;1.52;0.80;;;;;;;21.19;52.85;101167.94;4993860;28;20041;-65
2021/10/02 00:48:22;;;;;;;3.15;0.85;;;;;;;21.20;53.00;101158.16;4993019;28;20022;-65
2021/10/02 00:50:48;;;;;;;1.25;0.70;;;;;;;21.20;53.08;101152.88;4993049;28;20050;-64
2021/10/02 00:53:14;;;;;;;1.88;0.80;;;;;;;21.20;52.86;101155.53;4993440;28;20042;-65
2021/10/02 00:55:40;;;;;;;2.08;0.80;;;;;;;21.19;52.83;101149.38;4992626;28;20482;-64
2021/10/02 00:58:05;;;;;;;1.35;0.65;;;;;;;21.18;52.98;101158.31;4993156;28;20033;-64
2021/10/02 01:00:31;;;;;;;2.13;0.95;;;;;;;21.18;52.92;101152.19;4993524;28;20067;-64
2021/10/02 01:03:09;;;;;;;3.72;0.90;;;;;;;21.17;52.91;101164.59;4992420;28;20030;-65
2021/10/02 01:05:56;;;;;;;1.92;0.90;;;;;;;21.18;52.76;101154.81;4993165;28;20084;-64
2021/10/02 01:08:49;;;;;;;3.70;0.90;;;;;;;21.19;52.94;101148.56;4993633;28;20057;-64
2021/10/02 01:11:38;;;;;;;1.42;0.70;;;;;;;21.19;52.87;101143.25;4993279;28;20470;-65
2021/10/02 01:14:23;;;;;;;2.45;0.95;;;;;;;21.19;52.74;101140.59;4992839;28;20038;-65
2021/10/02 01:16:58;;;;;;;2.05;0.93;;;;;;;21.20;52.82;101136.97;4992396;28;20033;-65
2021/10/02 01:19:26;;;;;;;1.75;0.90;;;;;;;21.19;52.66;101135.31;4993528;28;20093;-64
2021/10/02 01:22:08;;;;;;;1.48;0.80;;;;;;;21.18;52.67;101139.75;4993127;28;20045;-65
2021/10/02 01:24:52;;;;;;;1.90;0.90;;;;;;;21.19;52.62;101136.13;4991631;28;20022;-64
2021/10/02 01:27:47;;;;;;;1.65;0.85;;;;;;;21.18;52.68;101134.44;4993409;28;20041;-65
2021/10/02 01:30:20;;;;;;;2.20;0.80;;;;;;;21.19;52.67;101136.13;4992414;28;20038;-64
2021/10/02 01:33:00;;;;;;;1.13;0.60;;;;;;;21.20;52.48;101123.72;4993042;28;20037;-65
2021/10/02 01:36:18;;;;;;;2.30;0.80;;;;;;;21.19;52.49;101112.28;4993530;28;20050;-64
2021/10/02 01:49:47;;;;;;;1.75;0.90;;;;;;;21.22;52.31;101124.44;4971383;28;20109;-63
2021/10/02 01:52:14;;;;;;;2.13;0.90;;;;;;;21.22;52.36;101121.78;4984550;28;20042;-64
2021/10/02 01:54:41;;;;;;;1.45;0.75;;;;;;;21.21;52.32;101120.09;4992667;28;20038;-64
2021/10/02 01:57:11;;;;;;;2.60;0.90;;;;;;;21.20;52.37;101113.97;4992496;28;20914;-64
2021/10/02 01:59:38;;;;;;;1.65;0.88;;;;;;;21.19;52.45;101112.28;4991918;28;20030;-64
2021/10/02 02:02:06;;;;;;;3.67;0.90;;;;;;;21.17;52.43;101105.44;4992223;28;20370;-64
2021/10/02 02:04:32;;;;;;;2.28;0.90;;;;;;;21.19;52.53;101106.16;4992742;28;20050;-65
2021/10/02 02:06:59;;;;;;;2.22;1.00;;;;;;;21.18;52.61;101107.13;4991725;28;20026;-64
2021/10/02 02:09:26;;;;;;;2.33;0.90;;;;;;;21.18;52.50;101107.94;4992707;28;20027;-65
2021/10/02 02:11:52;;;;;;;2.80;1.00;;;;;;;21.18;52.33;101099.16;4992319;28;20030;-64
2021/10/02 02:14:18;;;;;;;1.70;0.80;;;;;;;21.18;52.41;101097.34;4991735;28;20092;-63
2021/10/02 02:16:46;;;;;;;1.80;0.82;;;;;;;21.19;52.46;101090.25;4992451;28;20100;-63
2021/10/02 02:19:12;;;;;;;2.58;0.90;;;;;;;21.18;52.54;101093.88;4991786;28;20034;-65
2021/10/02 02:21:38;;;;;;;1.48;0.80;;;;;;;21.17;52.66;101093.03;4992590;28;20393;-64
2021/10/02 02:24:03;;;;;;;1.25;0.70;;;;;;;21.18;52.35;101083.28;4992451;28;20030;-65
2021/10/02 02:26:31;;;;;;;2.65;1.00;;;;;;;21.16;52.35;101088.72;4992051;28;20027;-63
2021/10/02 02:28:58;;;;;;;2.15;0.82;;;;;;;21.17;52.31;101081.59;4992155;28;20429;-65
2021/10/02 02:31:26;;;;;;;1.55;0.80;;;;;;;21.19;52.38;101091.09;4992427;28;20030;-64
2021/10/02 02:33:52;;;;;;;3.47;1.05;;;;;;;21.17;52.43;101085.09;4991462;28;20034;-63
2021/10/02 02:36:20;;;;;;;2.10;0.90;;;;;;;21.17;52.37;101077.13;4994679;28;20470;-64
2021/10/02 02:38:48;;;;;;;1.60;0.70;;;;;;;21.18;52.31;101064.72;4996127;28;20018;-64
2021/10/02 02:41:13;;;;;;;2.70;1.00;;;;;;;21.17;52.80;101079.78;4995437;28;20031;-64
2021/10/02 02:43:39;;;;;;;2.10;0.90;;;;;;;21.17;52.36;101070.97;4996080;28;20561;-65
2021/10/02 02:46:13;;;;;;;2.47;0.85;;;;;;;21.18;52.26;101072.66;4995689;28;20038;-65
2021/10/02 02:49:14;;;;;;;1.42;0.80;;;;;;;21.16;52.34;101071.97;4995449;28;20053;-64
2021/10/02 02:51:54;;;;;;;2.03;0.90;;;;;;;21.15;52.48;101071.13;4993084;28;20524;-64
2021/10/02 02:54:34;;;;;;;3.17;1.00;;;;;;;21.17;52.46;101076.28;4994972;28;20034;-64
2021/10/02 02:57:10;;;;;;;1.67;0.80;;;;;;;21.17;52.39;101070.97;4995550;28;20038;-64
2021/10/02 02:59:43;;;;;;;2.85;1.10;;;;;;;21.17;52.23;101065.69;4996038;28;20422;-65
2021/10/02 03:02:14;;;;;;;2.15;0.90;;;;;;;21.17;52.16;101065.69;4994925;28;20100;-65
2021/10/02 03:04:39;;;;;;;2.47;0.85;;;;;;;21.16;52.22;101064.84;4995617;28;20026;-64
2021/10/02 03:07:09;;;;;;;1.48;0.80;;;;;;;21.18;52.15;101070.00;4995454;28;20025;-64
2021/10/02 03:09:42;;;;;;;2.53;1.00;;;;;;;21.17;52.26;101071.84;4995190;28;20117;-64
2021/10/02 03:12:09;;;;;;;2.50;0.82;;;;;;;21.16;52.35;101064.03;4995359;28;20030;-65
2021/10/02 03:14:36;;;;;;;1.83;0.73;;;;;;;21.16;52.07;101059.56;4995610;28;20069;-64
2021/10/02 03:17:02;;;;;;;1.88;0.90;;;;;;;21.16;52.20;101056.91;4994422;28;20031;-64
2021/10/02 03:19:29;;;;;;;2.78;0.88;;;;;;;21.17;52.22;101065.69;4995292;28;20034;-64
2021/10/02 03:21:55;;;;;;;2.28;1.00;;;;;;;21.14;52.17;101072.13;4995327;28;20030;-64
2021/10/02 03:24:24;;;;;;;1.85;0.90;;;;;;;21.16;52.31;101074.63;4994791;28;20063;-64
2021/10/02 03:26:51;;;;;;;2.08;0.90;;;;;;;21.17;52.19;101082.44;4995046;28;20033;-64
2021/10/02 03:29:18;;;;;;;1.88;0.80;;;;;;;21.17;51.87;101073.63;4995203;28;20042;-64
2021/10/02 03:31:44;;;;;;;2.25;0.80;;;;;;;21.18;52.00;101068.19;4994233;28;20029;-64
2021/10/02 03:34:10;;;;;;;2.28;0.90;;;;;;;21.16;52.06;101067.50;4994718;28;20486;-64
2021/10/02 03:36:36;;;;;;;2.40;0.90;;;;;;;21.17;52.03;101070.97;4994429;28;20034;-64
2021/10/02 03:39:02;;;;;;;1.67;0.90;;;;;;;21.16;51.97;101070.16;4994717;28;20030;-64
2021/10/02 03:41:27;;;;;;;2.50;1.00;;;;;;;21.15;52.17;101068.47;4995030;28;20066;-65
2021/10/02 03:43:53;;;;;;;2.47;0.90;;;;;;;21.17;51.90;101070.97;4993878;28;20410;-64
2021/10/02 03:46:18;;;;;;;2.35;1.20;;;;;;;21.18;51.81;101075.31;4994197;28;20032;-64
2021/10/02 03:48:44;;;;;;;2.25;0.90;;;;;;;21.17;51.99;101066.53;4994465;28;20097;-64
2021/10/02 03:51:09;;;;;;;1.67;0.90;;;;;;;21.15;51.97;101073.78;4993435;28;20046;-64
2021/10/02 03:53:35;;;;;;;1.85;0.80;;;;;;;21.16;51.97;101077.28;4994571;28;20034;-64
2021/10/02 03:56:00;;;;;;;3.20;0.75;;;;;;;21.16;51.76;101080.75;4994261;28;20030;-64
2021/10/02 03:58:29;;;;;;;2.63;0.90;;;;;;;21.16;51.76;101074.63;4993756;28;20068;-64
2021/10/02 04:00:55;;;;;;;1.10;0.70;;;;;;;21.14;51.84;101072.13;4993996;28;20030;-63
2021/10/02 04:03:23;;;;;;;3.50;1.00;;;;;;;21.15;51.69;101072.94;4994591;28;20378;-63
2021/10/02 04:05:48;;;;;;;2.53;0.90;;;;;;;21.12;51.87;101070.56;4993213;28;20501;-64
2021/10/02 04:08:16;;;;;;;2.53;0.87;;;;;;;21.11;51.79;101064.44;4994439;28;20205;-63
2021/10/02 04:10:42;;;;;;;2.63;1.02;;;;;;;21.12;51.79;101073.22;4994240;28;20668;-63
2021/10/02 04:13:07;;;;;;;2.05;0.98;;;;;;;21.11;51.91;101066.22;4993108;28;20026;-65
2021/10/02 04:15:34;;;;;;;1.98;0.80;;;;;;;21.11;51.72;101060.94;4994275;28;20168;-65
2021/10/02 04:18:02;;;;;;;2.00;1.02;;;;;;;21.12;51.86;101059.97;4994249;28;20023;-64
2021/10/02 04:20:28;;;;;;;3.25;1.30;;;;;;;21.12;51.69;101057.31;4993570;28;20394;-64
2021/10/02 04:22:53;;;;;;;2.20;1.00;;;;;;;21.12;51.85;101067.91;4993978;28;20471;-64
2021/10/02 04:25:19;;;;;;;1.70;0.93;;;;;;;21.09;51.71;101069.03;4993881;28;20033;-64
2021/10/02 04:27:44;;;;;;;2.28;1.00;;;;;;;21.09;51.41;101073.50;4993094;28;20513;-64
2021/10/02 04:30:09;;;;;;;3.28;1.10;;;;;;;21.08;51.64;101072.66;4993674;28;20033;-64
2021/10/02 04:32:35;;;;;;;2.70;1.00;;;;;;;21.09;51.72;101070.84;4994132;28;20098;-64
2021/10/02 04:35:00;;;;;;;2.42;1.17;;;;;;;21.08;51.72;101066.50;4992647;28;20027;-64
2021/10/02 04:37:25;;;;;;;1.92;0.98;;;;;;;21.08;51.99;101063.88;4994052;28;20514;-64
2021/10/02 04:39:51;;;;;;;2.15;1.00;;;;;;;21.07;51.65;101060.38;4992958;28;20026;-64
2021/10/02 04:42:16;;;;;;;2.47;0.73;;;;;;;21.08;51.74;101069.16;4993911;28;20039;-65
2021/10/02 04:44:42;;;;;;;2.35;0.90;;;;;;;21.06;51.54;101069.31;4993755;28;20034;-65
2021/10/02 04:47:07;;;;;;;2.28;1.00;;;;;;;21.06;51.60;101064.03;4992823;28;20205;-65
2021/10/02 04:49:32;;;;;;;2.05;0.85;;;;;;;21.05;51.57;101059.69;4993637;28;20042;-64
2021/10/02 04:51:57;;;;;;;2.15;1.00;;;;;;;21.07;51.45;101070.16;4993327;28;20030;-64
2021/10/02 04:54:23;;;;;;;1.70;0.90;;;;;;;21.05;51.43;101072.94;4992986;28;20034;-64
2021/10/02 04:56:48;;;;;;;2.40;1.10;;;;;;;21.05;51.57;101070.28;4993163;28;20280;-63
2021/10/02 04:59:13;;;;;;;2.22;1.00;;;;;;;21.05;51.53;101074.75;4993123;28;20056;-64
2021/10/02 05:01:39;;;;;;;2.08;0.90;;;;;;;21.04;51.29;101076.56;4992944;28;20034;-64
2021/10/02 05:04:05;;;;;;;2.05;1.10;;;;;;;21.02;51.50;101067.91;4993082;28;20026;-64
2021/10/02 05:06:31;;;;;;;2.67;1.10;;;;;;;21.00;51.60;101070.72;4993396;28;20036;-63
2021/10/02 05:08:56;;;;;;;2.17;1.00;;;;;;;20.99;51.50;101074.31;4992421;28;20125;-64
2021/10/02 05:11:26;;;;;;;1.77;0.90;;;;;;;21.00;51.59;101076.00;4993297;28;20465;-64
2021/10/02 05:13:51;;;;;;;1.45;0.88;;;;;;;21.00;51.77;101067.22;4992965;28;20033;-65
2021/10/02 05:16:17;;;;;;;2.35;1.00;;;;;;;20.99;51.64;101065.53;4992699;28;20023;-63
2021/10/02 05:18:42;;;;;;;3.63;1.70;;;;;;;20.99;51.46;101066.38;4993297;28;20030;-65
2021/10/02 05:21:07;;;;;;;2.72;1.00;;;;;;;20.98;51.53;101072.66;4992768;28;20026;-63
2021/10/02 05:23:33;;;;;;;3.05;1.00;;;;;;;20.97;51.37;101070.97;4992218;28;20126;-64
2021/10/02 05:25:58;;;;;;;1.83;0.90;;;;;;;20.98;51.57;101077.97;4993111;28;20073;-65
2021/10/02 05:28:27;;;;;;;3.35;1.17;;;;;;;20.99;51.70;101073.50;4992952;28;20026;-65
2021/10/02 05:30:53;;;;;;;3.13;0.95;;;;;;;20.95;51.98;101080.03;4992175;28;20031;-65
2021/10/02 05:33:18;;;;;;;1.30;0.88;;;;;;;20.91;52.26;101076.81;4993145;28;20033;-64
2021/10/02 05:35:45;;;;;;;2.25;0.77;;;;;;;20.92;52.31;101075.00;4993075;28;20102;-64
2021/10/02 05:38:14;;;;;;;2.03;0.93;;;;;;;20.89;52.27;101073.47;4991910;28;20035;-64
2021/10/02 05:40:39;;;;;;;2.15;0.80;;;;;;;20.89;52.34;101070.84;4992778;28;20038;-64
2021/10/02 05:43:07;;;;;;;1.23;0.80;;;;;;;20.88;52.43;101069.16;4992095;28;20034;-64
2021/10/02 05:45:32;;;;;;;2.72;0.80;;;;;;;20.89;52.53;101067.34;4993022;28;20280;-64
2021/10/02 05:47:57;;;;;;;2.53;0.80;;;;;;;20.89;52.31;101068.19;4992729;28;20501;-64
2021/10/02 05:50:26;;;;;;;2.13;0.85;;;;;;;20.90;52.45;101069.84;4991990;28;20089;-64
2021/10/02 05:52:51;;;;;;;2.78;1.10;;;;;;;20.92;52.25;101072.34;4992599;28;20109;-65
2021/10/02 05:55:17;;;;;;;2.17;0.90;;;;;;;20.93;52.25;101071.38;4992696;28;20447;-65
2021/10/02 05:57:42;;;;;;;1.45;0.90;;;;;;;20.94;52.22;101078.38;4992008;28;20026;-65
2021/10/02 06:00:08;;;;;;;2.15;0.90;;;;;;;20.95;52.44;101069.44;4992680;28;20453;-66
2021/10/02 06:02:34;;;;;;;2.20;1.15;;;;;;;20.96;51.61;101074.59;4992853;28;20038;-68
2021/10/02 06:04:59;;;;;;;1.88;1.00;;;;;;;20.99;51.51;101071.66;4991673;28;20144;-62
2021/10/02 06:07:25;;;;;;;2.38;0.95;;;;;;;21.02;51.59;101083.81;4992677;28;20121;-62
2021/10/02 06:09:51;;;;;;;2.42;0.98;;;;;;;21.04;51.69;101081.84;4992484;28;20098;-60
2021/10/02 06:12:20;;;;;;;2.65;0.95;;;;;;;21.07;51.47;101086.06;4995642;28;20494;-65
2021/10/02 06:14:45;;;;;;;2.95;1.10;;;;;;;21.08;51.60;101085.91;4996488;28;20033;-62
2021/10/02 06:17:11;;;;;;;2.65;1.17;;;;;;;21.08;51.78;101080.63;4995985;28;20035;-62
2021/10/02 06:19:36;;;;;;;2.45;0.93;;;;;;;21.08;51.73;101082.41;4995994;28;20026;-64
2021/10/02 06:22:02;;;;;;;2.58;1.08;;;;;;;21.08;51.51;101080.63;4996099;28;20031;-67
2021/10/02 06:24:28;;;;;;;2.58;1.10;;;;;;;21.08;51.80;101079.75;4996164;28;20032;-67
2021/10/02 06:26:54;;;;;;;2.95;1.10;;;;;;;21.07;51.72;101080.75;4995186;28;20441;-63
2021/10/02 06:29:22;;;;;;;2.47;1.05;;;;;;;21.05;51.96;101077.41;4996544;28;20026;-67
2021/10/02 06:31:48;;;;;;;2.78;1.23;;;;;;;21.04;52.19;101078.38;4996159;28;20037;-62
2021/10/02 06:34:14;;;;;;;3.30;1.02;;;;;;;21.07;52.17;101086.88;4995636;28;20034;-62
2021/10/02 06:36:41;;;;;;;2.30;1.00;;;;;;;21.08;52.09;101085.91;4996304;28;20022;-62
2021/10/02 06:39:07;;;;;;;1.80;0.90;;;;;;;21.06;52.14;101085.22;4995837;28;20524;-62
2021/10/02 06:41:32;;;;;;;2.38;1.10;;;;;;;21.07;52.17;101086.88;4995329;28;20513;-62
2021/10/02 06:43:57;;;;;;;1.77;0.90;;;;;;;21.07;52.26;101086.06;4995930;28;20453;-61
2021/10/02 06:46:23;;;;;;;3.30;1.17;;;;;;;21.08;52.07;101083.28;4995569;28;20038;-61
2021/10/02 06:48:48;;;;;;;2.88;1.27;;;;;;;21.11;52.13;101084.78;4995484;28;20466;-63
2021/10/02 06:51:13;;;;;;;3.43;1.10;;;;;;;21.12;51.84;101082.00;4995790;28;20121;-62
2021/10/02 06:53:38;;;;;;;3.10;1.33;;;;;;;21.15;51.88;101078.25;4994947;28;20777;-62
2021/10/02 06:56:07;;;;;;;2.87;0.90;;;;;;;21.15;51.95;101080.91;4995442;28;20022;-62
2021/10/02 06:58:32;;;;;;;2.95;1.30;;;;;;;21.15;51.84;101076.41;4995854;28;20283;-63
2021/10/02 07:00:57;;;;;;;3.28;1.02;;;;;;;21.17;51.50;101079.78;4994557;28;20042;-63
2021/10/02 07:03:23;;;;;;;3.70;1.20;;;;;;;21.16;51.83;101070.16;4995814;28;20061;-63
2021/10/02 07:05:48;;;;;;;3.88;1.33;;;;;;;21.16;51.94;101072.81;4995448;28;20060;-64
2021/10/02 07:08:14;;;;;;;2.47;1.10;;;;;;;21.16;51.74;101064.84;4994783;28;20092;-63
2021/10/02 07:10:40;;;;;;;3.13;1.13;;;;;;;21.17;51.67;101055.94;4995495;28;20023;-64
2021/10/02 07:13:05;;;;;;;2.80;1.30;;;;;;;21.16;51.75;101054.25;4995079;28;20025;-63
2021/10/02 07:15:30;;;;;;;3.63;1.17;;;;;;;21.16;51.70;101048.94;4994744;28;20045;-62
2021/10/02 07:17:58;;;;;;;2.88;1.05;;;;;;;21.16;51.80;101042.81;4995259;28;20026;-63
2021/10/02 07:20:25;;;;;;;3.05;1.27;;;;;;;21.17;51.71;101045.34;4995274;28;20022;-63
2021/10/02 07:22:51;;;;;;;5.13;1.13;;;;;;;21.17;51.75;101036.53;4994326;28;20042;-63
2021/10/02 07:25:17;;;;;;;3.65;1.38;;;;;;;21.17;51.88;101033.88;4995805;28;20370;-64
2021/10/02 07:27:53;;;;;;;2.88;1.20;;;;;;;21.18;51.89;101039.03;4995502;28;20480;-62
2021/10/02 07:30:21;;;;;;;5.25;1.20;;;;;;;21.19;52.00;101037.25;4994712;28;20023;-63
2021/10/02 07:32:47;;;;;;;2.55;1.05;;;;;;;21.19;52.09;101035.44;4994825;28;20548;-64
2021/10/02 07:35:15;;;;;;;3.70;1.20;;;;;;;21.21;51.97;101037.94;4994777;28;20061;-64
2021/10/02 07:37:41;;;;;;;4.68;1.20;;;;;;;21.20;52.11;101025.66;4994249;28;20104;-64
2021/10/02 07:40:09;;;;;;;3.55;1.38;;;;;;;21.20;52.13;101034.47;4994748;28;20445;-65
2021/10/02 07:42:35;;;;;;;5.18;1.23;;;;;;;21.21;51.76;101027.34;4994822;28;20026;-66
2021/10/02 07:45:10;;;;;;;4.45;1.33;;;;;;;21.22;52.29;101025.50;4993949;28;20026;-66
2021/10/02 07:47:40;;;;;;;2.55;1.20;;;;;;;21.22;52.27;101013.13;4994668;28;20062;-66
2021/10/02 07:50:12;;;;;;;2.90;1.20;;;;;;;21.24;52.39;101010.28;4993617;28;20125;-65
2021/10/02 07:52:38;;;;;;;2.15;1.15;;;;;;;21.24;52.38;101007.66;4994633;28;20058;-64
2021/10/02 07:55:07;;;;;;;2.08;1.10;;;;;;;21.26;52.40;101014.50;4992945;28;20543;-64
2021/10/02 07:57:38;;;;;;;3.40;1.15;;;;;;;21.27;52.33;101004.72;4993933;28;20026;-67
2021/10/02 08:00:09;;;;;;;3.88;1.20;;;;;;;21.27;52.50;101002.06;4994980;28;20057;-64
2021/10/02 08:02:35;;;;;;;4.07;1.23;;;;;;;21.30;52.41;101007.09;4994294;28;20394;-65
2021/10/02 08:05:01;;;;;;;2.47;1.17;;;;;;;21.31;52.53;101001.63;4993666;28;20022;-64
2021/10/02 08:07:29;;;;;;;4.50;1.40;;;;;;;21.35;52.18;101000.41;4994574;28;20046;-63
2021/10/02 08:09:55;;;;;;;4.55;1.52;;;;;;;21.36;52.25;101001.22;4993933;28;20497;-63
2021/10/02 08:12:20;;;;;;;3.75;1.67;;;;;;;21.36;52.55;101004.72;4993536;28;20030;-64
2021/10/02 08:14:45;;;;;;;2.67;1.00;;;;;;;21.36;52.33;101004.72;4994293;28;20038;-65
2021/10/02 08:17:12;;;;;;;3.63;1.43;;;;;;;21.37;52.27;100995.78;4993855;28;20018;-65
2021/10/02 08:19:39;;;;;;;3.28;1.30;;;;;;;21.37;52.33;100985.16;4993403;28;20728;-66
2021/10/02 08:22:06;;;;;;;3.47;1.55;;;;;;;21.38;52.19;100996.63;4993786;28;20423;-65
2021/10/02 08:24:32;;;;;;;2.33;1.00;;;;;;;21.36;52.50;100983.50;4994109;28;20026;-64
2021/10/02 08:26:59;;;;;;;3.20;1.38;;;;;;;21.37;52.36;100987.81;4993084;28;20382;-64
2021/10/02 08:29:25;;;;;;;2.78;1.17;;;;;;;21.42;52.60;100987.41;4993958;28;20469;-65
2021/10/02 08:31:51;;;;;;;3.88;1.35;;;;;;;21.42;52.68;100974.13;4993379;28;20033;-65
2021/10/02 08:34:17;;;;;;;3.25;1.30;;;;;;;21.41;52.39;100979.59;4993261;28;20093;-61
2021/10/02 08:36:42;;;;;;;3.03;1.10;;;;;;;21.40;52.54;100977.94;4993909;28;20022;-61
2021/10/02 08:39:07;;;;;;;3.20;1.38;;;;;;;21.38;52.56;100968.28;4992755;28;20033;-63
2021/10/02 08:41:34;;;;;;;3.47;1.13;;;;;;;21.39;52.63;100963.81;4993827;28;20487;-62
2021/10/02 08:44:01;;;;;;;1.98;1.10;;;;;;;21.41;52.73;100953.91;4993543;28;20129;-62
2021/10/02 08:46:30;;;;;;;2.10;1.15;;;;;;;21.42;52.37;100944.16;4993069;28;20026;-61
2021/10/02 08:49:25;;;;;;;3.22;1.45;;;;;;;21.46;52.50;100945.50;4993552;28;20034;-61
2021/10/02 08:51:51;;;;;;;2.95;1.30;;;;;;;21.44;52.46;100950.13;4993608;28;20034;-63
2021/10/02 08:54:18;;;;;;;5.45;1.40;;;;;;;21.42;52.55;100936.19;4992940;28;20057;-62
2021/10/02 08:56:46;;;;;;;2.58;1.30;;;;;;;21.40;52.59;100938.16;4993490;28;20113;-62
2021/10/02 08:59:13;;;;;;;3.45;1.10;;;;;;;21.38;52.77;100939.13;4993571;28;20080;-61
2021/10/02 09:01:40;;;;;;;2.38;1.15;;;;;;;21.41;52.53;100931.88;4992750;28;20089;-64
2021/10/02 09:04:06;;;;;;;3.90;1.40;;;;;;;21.46;52.42;100938.41;4994725;28;20029;-67
2021/10/02 09:06:34;;;;;;;4.20;1.48;;;;;;;21.52;52.67;100937.03;4993594;28;20125;-62
2021/10/02 09:08:59;;;;;;;3.30;1.65;;;;;;;21.55;52.42;100934.09;4992496;28;20094;-63
2021/10/02 09:11:27;;;;;;;3.15;1.38;;;;;;;21.58;52.37;100932.97;4993662;28;20096;-65
2021/10/02 09:13:53;;;;;;;4.60;1.70;;;;;;;21.59;52.22;100932.81;4993541;28;20351;-66
2021/10/02 09:16:18;;;;;;;3.15;1.35;;;;;;;21.60;52.11;100937.13;4993366;28;20474;-66
2021/10/02 09:18:43;;;;;;;4.10;1.52;;;;;;;21.62;52.49;100929.88;4995007;28;20038;-67
2021/10/02 09:21:11;;;;;;;2.80;1.35;;;;;;;21.65;52.12;100926.94;4993019;28;20022;-66
2021/10/02 09:23:55;;;;;;;3.50;1.42;;;;;;;21.70;52.06;100929.16;4994781;28;20132;-65
2021/10/02 09:26:40;;;;;;;5.37;1.60;;;;;;;21.74;51.92;100919.91;4994098;28;20038;-66
2021/10/02 09:29:08;;;;;;;5.28;1.58;;;;;;;21.76;52.02;100917.94;4993838;28;20036;-66
2021/10/02 09:31:33;;;;;;;5.78;1.63;;;;;;;21.78;51.77;100923.09;4993692;28;20566;-66
2021/10/02 09:33:59;;;;;;;5.28;1.45;;;;;;;21.78;52.00;100912.47;4993253;28;20113;-63
2021/10/02 09:36:25;;;;;;;3.45;1.45;;;;;;;21.78;51.76;100905.38;4992974;28;20438;-62
2021/10/02 09:38:52;;;;;;;3.42;1.48;;;;;;;21.80;51.76;100913.19;4993951;28;20065;-66
2021/10/02 09:41:18;;;;;;;3.10;1.30;;;;;;;21.80;51.78;100892.78;4993666;28;20061;-71
2021/10/02 09:43:50;;;;;;;3.63;1.50;;;;;;;21.78;51.84;100885.97;4992965;28;20486;-69
2021/10/02 09:46:17;;;;;;;3.47;1.40;;;;;;;21.78;51.85;100886.81;4996215;28;20054;-67
2021/10/02 09:48:53;;;;;;;4.07;1.10;;;;;;;21.80;51.79;100886.66;4997148;28;20092;-67
2021/10/02 09:51:38;;;;;;;3.05;1.33;;;;;;;21.82;51.54;100885.53;4996728;28;20042;-67
2021/10/02 09:54:04;;;;;;;2.63;1.20;;;;;;;21.86;51.83;100886.06;4997040;28;20096;-68
2021/10/02 09:56:29;;;;;;;4.85;1.50;;;;;;;21.87;51.57;100875.31;4996382;28;20478;-67
2021/10/02 09:58:55;;;;;;;3.28;1.20;;;;;;;21.89;51.39;100873.34;4996737;28;20081;-66
2021/10/02 10:01:25;;;;;;;4.40;1.20;;;;;;;21.89;51.55;100873.34;4997011;28;20493;-69
2021/10/02 10:03:52;;;;;;;4.75;1.30;;;;;;;21.88;51.64;100865.53;4996054;28;20031;-65
2021/10/02 10:06:25;;;;;;;2.78;1.30;;;;;;;21.86;51.61;100865.69;4997142;28;20023;-66
2021/10/02 10:09:11;;;;;;;3.28;1.40;;;;;;;21.86;51.69;100863.03;4996411;28;20035;-66
2021/10/02 10:11:45;;;;;;;3.25;1.20;;;;;;;21.87;51.83;100861.19;4996144;28;20023;-67
2021/10/02 10:14:22;;;;;;;5.35;1.30;;;;;;;21.86;51.98;100854.25;4996432;28;20112;-67
2021/10/02 10:16:47;;;;;;;4.10;1.30;;;;;;;21.83;52.05;100839.44;4996503;28;20474;-66
2021/10/02 10:19:31;;;;;;;3.88;1.50;;;;;;;21.87;52.09;100839.97;4996152;28;20033;-65
2021/10/02 10:22:14;;;;;;;3.90;1.30;;;;;;;21.91;51.74;100831.56;4996744;28;20042;-66
2021/10/02 10:24:41;;;;;;;3.13;1.27;;;;;;;21.98;51.92;100834.44;4996214;28;20042;-67
2021/10/02 10:27:07;;;;;;;2.67;1.10;;;;;;;22.00;51.65;100843.13;4996391;28;20466;-66
2021/10/02 10:29:38;;;;;;;3.88;1.20;;;;;;;22.03;51.70;100840.16;4996697;28;20030;-68
2021/10/02 10:32:06;;;;;;;3.67;1.17;;;;;;;22.02;51.71;100835.00;4995234;28;20382;-64
2021/10/02 10:34:34;;;;;;;4.10;1.30;;;;;;;22.00;51.68;100823.69;4996053;28;20026;-64
2021/10/02 10:37:00;;;;;;;4.05;1.50;;;;;;;22.01;51.75;100826.19;4995820;28;20374;-62
2021/10/02 10:39:25;;;;;;;5.63;1.23;;;;;;;22.00;51.81;100821.88;4995680;28;20038;-62
2021/10/02 10:41:51;;;;;;;4.47;1.20;;;;;;;22.01;51.81;100823.53;4995992;28;20522;-68
2021/10/02 10:44:16;;;;;;;3.08;1.20;;;;;;;22.00;51.61;100821.03;4996086;28;20037;-64
2021/10/02 10:46:42;;;;;;;3.97;1.33;;;;;;;22.00;51.79;100810.41;4995380;28;20054;-62
2021/10/02 10:49:07;;;;;;;5.43;2.15;;;;;;;21.99;51.83;100814.91;4995679;28;20098;-65
2021/10/02 10:51:34;;;;;;;6.18;3.75;;;;;;;22.00;52.00;100802.47;4995567;28;20062;-63
2021/10/02 10:54:00;;;;;;;10.00;6.97;;;;;;;22.00;52.07;100805.13;4994706;28;20474;-65
2021/10/02 10:56:43;;;;;;;13.43;10.40;;;;;;;22.00;51.86;100799.81;4995617;28;20113;-62
2021/10/02 10:59:09;;;;;;;18.20;13.80;;;;;;;22.01;51.95;100788.22;4995843;28;20022;-65
2021/10/02 11:01:37;;;;;;;20.92;16.17;;;;;;;22.08;51.79;100802.56;4995214;28;20022;-67
2021/10/02 11:04:03;;;;;;;23.08;19.38;;;;;;;22.13;51.93;100796.78;4996070;28;20023;-65
2021/10/02 11:06:48;;;;;;;23.88;20.25;;;;;;;22.18;51.66;100778.59;4996156;28;20073;-66
2021/10/02 11:09:14;;;;;;;22.40;20.10;;;;;;;22.19;51.42;100791.72;4987195;28;20035;-67
2021/10/02 11:11:51;;;;;;;20.70;18.55;;;;;;;22.18;51.68;100791.88;4993923;28;20037;-71
2021/10/02 11:14:23;;;;;;;23.67;19.95;;;;;;;22.16;51.70;100786.72;4995407;28;20037;-66
2021/10/02 11:16:58;;;;;;;21.98;18.08;;;;;;;22.19;51.49;100780.25;4995524;28;20030;-64
2021/10/02 11:19:31;;;;;;;21.20;18.98;;;;;;;22.22;51.41;100771.97;4996047;28;20027;-66
2021/10/02 11:22:01;;;;;;;19.67;17.58;;;;;;;22.24;51.32;100764.72;4994363;28;20411;-66
2021/10/02 11:24:41;;;;;;;21.10;18.50;;;;;;;22.26;51.41;100758.25;4997462;28;20030;-65
2021/10/02 11:27:20;;;;;;;19.17;15.65;;;;;;;22.25;51.44;100758.41;5000880;28;20337;-65
2021/10/02 11:29:47;;;;;;;17.50;15.38;;;;;;;22.24;51.53;100748.78;5001308;28;20065;-67
2021/10/02 11:32:21;;;;;;;17.05;14.32;;;;;;;22.26;51.38;100736.19;5000250;28;20027;-65
2021/10/02 11:35:13;;;;;;;17.90;14.82;;;;;;;22.27;51.17;100725.41;5000300;28;20125;-65
2021/10/02 11:37:52;;;;;;;15.63;14.02;;;;;;;22.25;50.95;100716.75;5001365;28;20117;-66
2021/10/02 11:40:32;;;;;;;16.77;14.38;;;;;;;22.24;51.10;100701.00;5001850;28;20045;-66
2021/10/02 11:43:13;;;;;;;15.68;12.68;;;;;;;22.19;50.96;100714.75;5001055;28;20121;-65
2021/10/02 11:45:44;;;;;;;15.65;11.63;;;;;;;22.13;51.23;100702.09;5002954;28;20031;-69
2021/10/02 11:48:41;;;;;;;12.50;10.93;;;;;;;22.09;51.58;100698.88;5001212;28;20022;-66
2021/10/02 11:51:21;;;;;;;14.85;11.15;;;;;;;22.14;51.63;100681.69;4965285;28;20075;-65
2021/10/02 11:53:54;;;;;;;14.82;11.35;;;;;;;22.17;51.70;100682.19;5001905;28;20121;-65
2021/10/02 11:56:22;;;;;;;13.65;10.23;;;;;;;22.18;51.81;100675.09;5001262;28;20039;-65
2021/10/02 11:58:59;;;;;;;12.02;10.27;;;;;;;22.20;51.67;100665.97;5002162;28;20089;-66
2021/10/02 12:01:27;;;;;;;11.13;9.48;;;;;;;22.22;51.48;100660.50;5001774;28;20141;-70
2021/10/02 12:04:03;;;;;;;12.40;9.35;;;;;;;22.25;51.46;100653.03;5001289;28;20034;-67
2021/10/02 12:06:30;;;;;;;12.15;9.48;;;;;;;22.26;51.59;100648.59;5000401;28;20173;-68
2021/10/02 12:09:01;;;;;;;14.32;9.55;;;;;;;22.24;51.51;100643.44;5000776;28;20045;-67
2021/10/02 12:11:28;;;;;;;12.13;9.43;;;;;;;22.23;51.70;100648.91;5000126;28;20030;-65
2021/10/02 12:13:55;;;;;;;12.32;9.52;;;;;;;22.19;51.81;100636.91;4999739;28;20551;-63
2021/10/02 12:16:31;;;;;;;14.13;9.00;;;;;;;22.20;51.80;100636.75;5000360;28;20037;-68
2021/10/02 12:19:11;;;;;;;10.55;8.25;;;;;;;22.23;52.05;100617.03;4999411;28;20022;-66
2021/10/02 12:21:41;;;;;;;11.48;7.97;;;;;;;22.28;52.13;100631.50;4999219;28;20034;-67
2021/10/02 12:24:12;;;;;;;13.63;8.23;;;;;;;22.31;52.09;100627.72;4998318;28;20042;-67
2021/10/02 12:26:58;;;;;;;10.10;7.55;;;;;;;22.34;52.06;100627.44;5000349;28;20022;-67
2021/10/02 12:29:29;;;;;;;9.82;7.28;;;;;;;22.37;51.86;100613.00;5000115;28;20066;-64